sensor_id;sensor_type;location;lat;lon;timestamp;pressure;altitude;pressure_sealevel;temperature;humidity
12793;BME280;6460;42.684;23.260;2022-08-11T00:02:25;94730.34;;;19.97;91.17
12793;BME280;6460;42.684;23.260;2022-08-11T00:04:53;94732.38;;;19.93;91.38
12793;BME280;6460;42.684;23.260;2022-08-11T00:07:22;94732.94;;;19.81;91.70
12793;BME280;6460;42.684;23.260;2022-08-11T00:09:50;94727.47;;;19.51;95.09
12793;BME280;6460;42.684;23.260;2022-08-11T00:12:20;94733.50;;;19.66;94.09
12793;BME280;6460;42.684;23.260;2022-08-11T00:14:56;94721.91;;;19.88;92.13
12793;BME280;6460;42.684;23.260;2022-08-11T00:17:27;94727.91;;;19.76;92.36
12793;BME280;6460;42.684;23.260;2022-08-11T00:20:02;94722.34;;;19.53;94.32
12793;BME280;6460;42.684;23.260;2022-08-11T00:22:31;94727.47;;;19.51;95.18
12793;BME280;6460;42.684;23.260;2022-08-11T00:24:59;94729.56;;;19.70;94.55
12793;BME280;6460;42.684;23.260;2022-08-11T00:27:38;94729.38;;;19.54;95.61
12793;BME280;6460;42.684;23.260;2022-08-11T00:30:07;94733.97;;;19.61;93.89
12793;BME280;6460;42.684;23.260;2022-08-11T00:32:37;94730.31;;;19.37;95.66
12793;BME280;6460;42.684;23.260;2022-08-11T00:35:07;94719.75;;;19.46;96.01
12793;BME280;6460;42.684;23.260;2022-08-11T00:37:37;94720.44;;;19.50;95.32
12793;BME280;6460;42.684;23.260;2022-08-11T00:40:14;94709.84;;;19.86;92.96
12793;BME280;6460;42.684;23.260;2022-08-11T00:42:57;94720.50;;;19.46;96.02
12793;BME280;6460;42.684;23.260;2022-08-11T00:45:28;94708.41;;;19.78;93.73
12793;BME280;6460;42.684;23.260;2022-08-11T00:48:04;94710.50;;;19.97;92.88
12793;BME280;6460;42.684;23.260;2022-08-11T00:50:44;94718.19;;;19.75;93.99
12793;BME280;6460;42.684;23.260;2022-08-11T00:53:31;94707.34;;;19.98;93.19
12793;BME280;6460;42.684;23.260;2022-08-11T01:02:41;94713.75;;;19.85;92.19
12793;BME280;6460;42.684;23.260;2022-08-11T01:05:34;94706.75;;;19.57;95.17
12793;BME280;6460;42.684;23.260;2022-08-11T01:08:59;94712.41;;;19.70;95.16
12793;BME280;6460;42.684;23.260;2022-08-11T01:12:03;94709.66;;;20.00;92.30
12793;BME280;6460;42.684;23.260;2022-08-11T01:14:56;94696.91;;;19.93;92.71
12793;BME280;6460;42.684;23.260;2022-08-11T01:21:07;94701.22;;;19.91;92.93
12793;BME280;6460;42.684;23.260;2022-08-11T01:27:20;94695.75;;;20.18;90.80
12793;BME280;6460;42.684;23.260;2022-08-11T01:30:17;94698.56;;;20.11;91.03
12793;BME280;6460;42.684;23.260;2022-08-11T01:36:24;94699.19;;;20.22;90.07
12793;BME280;6460;42.684;23.260;2022-08-11T01:39:32;94690.75;;;20.13;90.42
12793;BME280;6460;42.684;23.260;2022-08-11T01:45:29;94689.38;;;19.74;92.31
12793;BME280;6460;42.684;23.260;2022-08-11T01:48:05;94686.66;;;19.74;92.74
12793;BME280;6460;42.684;23.260;2022-08-11T01:51:04;94690.47;;;19.80;92.55
12793;BME280;6460;42.684;23.260;2022-08-11T01:53:46;94694.00;;;19.77;93.11
12793;BME280;6460;42.684;23.260;2022-08-11T01:56:43;94689.22;;;19.58;95.06
12793;BME280;6460;42.684;23.260;2022-08-11T01:59:19;94699.03;;;19.52;95.11
12793;BME280;6460;42.684;23.260;2022-08-11T02:02:17;94690.47;;;19.50;95.87
12793;BME280;6460;42.684;23.260;2022-08-11T02:05:16;94685.78;;;19.81;93.18
12793;BME280;6460;42.684;23.260;2022-08-11T02:07:55;94704.28;;;19.32;96.81
12793;BME280;6460;42.684;23.260;2022-08-11T02:10:29;94690.31;;;19.30;96.47
12793;BME280;6460;42.684;23.260;2022-08-11T02:13:28;94689.47;;;18.99;100.00
12793;BME280;6460;42.684;23.260;2022-08-11T02:16:09;94692.47;;;19.46;97.20
12793;BME280;6460;42.684;23.260;2022-08-11T02:18:41;94696.66;;;19.54;95.66
12793;BME280;6460;42.684;23.260;2022-08-11T02:21:38;94698.50;;;19.30;97.43
12793;BME280;6460;42.684;23.260;2022-08-11T02:24:28;94702.91;;;19.51;95.96
12793;BME280;6460;42.684;23.260;2022-08-11T02:27:05;94695.78;;;19.61;94.05
12793;BME280;6460;42.684;23.260;2022-08-11T02:29:45;94703.81;;;19.41;95.42
12793;BME280;6460;42.684;23.260;2022-08-11T02:32:18;94698.63;;;19.50;95.18
12793;BME280;6460;42.684;23.260;2022-08-11T02:35:11;94698.63;;;19.50;94.42
12793;BME280;6460;42.684;23.260;2022-08-11T02:37:50;94694.06;;;19.43;94.54
12793;BME280;6460;42.684;23.260;2022-08-11T02:40:28;94692.44;;;19.49;94.83
12793;BME280;6460;42.684;23.260;2022-08-11T02:43:09;94693.75;;;19.34;95.82
12793;BME280;6460;42.684;23.260;2022-08-11T02:45:55;94694.81;;;19.44;95.56
12793;BME280;6460;42.684;23.260;2022-08-11T02:48:38;94689.75;;;19.46;95.92
12793;BME280;6460;42.684;23.260;2022-08-11T02:51:34;94689.34;;;19.47;94.21
12793;BME280;6460;42.684;23.260;2022-08-11T02:54:09;94690.88;;;19.15;97.19
12793;BME280;6460;42.684;23.260;2022-08-11T02:56:47;94694.00;;;19.13;98.58
12793;BME280;6460;42.684;23.260;2022-08-11T02:59:24;94688.47;;;18.86;100.00
12793;BME280;6460;42.684;23.260;2022-08-11T03:02:15;94687.59;;;19.30;98.19
12793;BME280;6460;42.684;23.260;2022-08-11T03:04:57;94692.16;;;19.37;96.50
12793;BME280;6460;42.684;23.260;2022-08-11T03:07:31;94690.50;;;19.46;95.91
12793;BME280;6460;42.684;23.260;2022-08-11T03:10:07;94695.53;;;19.51;95.48
12793;BME280;6460;42.684;23.260;2022-08-11T03:12:44;94697.13;;;19.49;94.51
12793;BME280;6460;42.684;23.260;2022-08-11T03:15:40;94704.22;;;19.39;94.79
12793;BME280;6460;42.684;23.260;2022-08-11T03:18:31;94701.25;;;19.61;93.10
12793;BME280;6460;42.684;23.260;2022-08-11T03:23:55;94699.28;;;19.61;92.44
12793;BME280;6460;42.684;23.260;2022-08-11T03:26:31;94695.38;;;19.62;92.58
12793;BME280;6460;42.684;23.260;2022-08-11T03:29:09;94698.28;;;19.48;92.94
12793;BME280;6460;42.684;23.260;2022-08-11T03:31:44;94695.47;;;19.55;92.34
12793;BME280;6460;42.684;23.260;2022-08-11T03:34:16;94693.94;;;19.54;92.35
12793;BME280;6460;42.684;23.260;2022-08-11T03:37:18;94680.81;;;19.45;93.43
12793;BME280;6460;42.684;23.260;2022-08-11T03:40:19;94693.50;;;19.59;92.19
12793;BME280;6460;42.684;23.260;2022-08-11T03:43:11;94699.06;;;19.48;92.41
12793;BME280;6460;42.684;23.260;2022-08-11T03:45:57;94688.47;;;19.54;92.79
12793;BME280;6460;42.684;23.260;2022-08-11T03:48:36;94700.47;;;19.60;92.28
12793;BME280;6460;42.684;23.260;2022-08-11T03:51:14;94698.59;;;19.53;92.87
12793;BME280;6460;42.684;23.260;2022-08-11T03:57:07;94701.53;;;19.66;91.97
12793;BME280;6460;42.684;23.260;2022-08-11T04:03:05;94694.88;;;19.71;91.52
12793;BME280;6460;42.684;23.260;2022-08-11T04:06:05;94704.75;;;19.61;92.63
12793;BME280;6460;42.684;23.260;2022-08-11T04:12:06;94694.34;;;19.79;91.27
12793;BME280;6460;42.684;23.260;2022-08-11T04:14:49;94699.25;;;19.91;90.33
12793;BME280;6460;42.684;23.260;2022-08-11T04:24:24;94697.97;;;19.99;90.72
12793;BME280;6460;42.684;23.260;2022-08-11T04:27:13;94704.25;;;19.96;90.84
12793;BME280;6460;42.684;23.260;2022-08-11T04:29:55;94709.25;;;20.01;90.22
12793;BME280;6460;42.684;23.260;2022-08-11T04:33:01;94709.00;;;19.92;91.38
12793;BME280;6460;42.684;23.260;2022-08-11T04:35:38;94704.84;;;20.07;90.70
12793;BME280;6460;42.684;23.260;2022-08-11T04:38:31;94705.00;;;20.00;91.49
12793;BME280;6460;42.684;23.260;2022-08-11T04:41:28;94709.25;;;20.28;88.97
12793;BME280;6460;42.684;23.260;2022-08-11T04:47:50;94717.66;;;20.41;88.67
12793;BME280;6460;42.684;23.260;2022-08-11T04:50:55;94712.91;;;20.45;89.08
12793;BME280;6460;42.684;23.260;2022-08-11T04:53:57;94712.91;;;20.45;88.84
12793;BME280;6460;42.684;23.260;2022-08-11T04:56:58;94720.03;;;20.39;88.43
12793;BME280;6460;42.684;23.260;2022-08-11T05:00:05;94714.47;;;20.42;88.38
12793;BME280;6460;42.684;23.260;2022-08-11T05:09:29;94720.84;;;20.09;89.56
12793;BME280;6460;42.684;23.260;2022-08-11T05:12:08;94713.28;;;20.17;89.84
12793;BME280;6460;42.684;23.260;2022-08-11T05:14:47;94711.25;;;20.24;87.96
12793;BME280;6460;42.684;23.260;2022-08-11T05:17:38;94715.03;;;20.34;87.38
12793;BME280;6460;42.684;23.260;2022-08-11T05:20:25;94718.25;;;20.25;88.26
12793;BME280;6460;42.684;23.260;2022-08-11T05:23:10;94715.16;;;20.23;88.38
12793;BME280;6460;42.684;23.260;2022-08-11T05:25:59;94711.88;;;20.08;90.73
12793;BME280;6460;42.684;23.260;2022-08-11T05:28:53;94710.22;;;20.15;89.20
12793;BME280;6460;42.684;23.260;2022-08-11T05:31:40;94709.38;;;20.18;89.32
12793;BME280;6460;42.684;23.260;2022-08-11T05:34:28;94714.84;;;20.18;89.73
12793;BME280;6460;42.684;23.260;2022-08-11T05:37:22;94707.72;;;20.00;90.01
12793;BME280;6460;42.684;23.260;2022-08-11T05:39:55;94715.03;;;20.34;89.46
12793;BME280;6460;42.684;23.260;2022-08-11T05:42:48;94711.69;;;20.46;88.12
12793;BME280;6460;42.684;23.260;2022-08-11T05:45:34;94708.28;;;20.42;88.63
12793;BME280;6460;42.684;23.260;2022-08-11T05:48:19;94715.69;;;20.41;89.71
12793;BME280;6460;42.684;23.260;2022-08-11T05:51:06;94714.75;;;20.25;91.04
12793;BME280;6460;42.684;23.260;2022-08-11T05:53:54;94712.91;;;20.45;88.46
12793;BME280;6460;42.684;23.260;2022-08-11T05:56:51;94709.22;;;20.32;89.72
12793;BME280;6460;42.684;23.260;2022-08-11T05:59:22;94715.38;;;20.36;91.90
12793;BME280;6460;42.684;23.260;2022-08-11T06:01:50;94713.59;;;20.49;89.39
12793;BME280;6460;42.684;23.260;2022-08-11T06:04:20;94715.91;;;20.24;89.90
12793;BME280;6460;42.684;23.260;2022-08-11T06:06:54;94711.47;;;20.37;91.28
12793;BME280;6460;42.684;23.260;2022-08-11T06:09:30;94714.56;;;20.39;89.81
12793;BME280;6460;42.684;23.260;2022-08-11T06:12:01;94709.81;;;20.66;88.77
12793;BME280;6460;42.684;23.260;2022-08-11T06:14:31;94706.78;;;20.61;88.75
12793;BME280;6460;42.684;23.260;2022-08-11T06:17:01;94717.78;;;20.57;87.33
12793;BME280;6460;42.684;23.260;2022-08-11T06:19:32;94703.81;;;20.75;87.23
12793;BME280;6460;42.684;23.260;2022-08-11T06:22:01;94697.59;;;20.94;87.56
12793;BME280;6460;42.684;23.260;2022-08-11T06:24:29;94702.03;;;21.07;86.78
12793;BME280;6460;42.684;23.260;2022-08-11T06:26:59;94702.44;;;21.06;85.94
12793;BME280;6460;42.684;23.260;2022-08-11T06:29:27;94694.94;;;21.33;84.38
12793;BME280;6460;42.684;23.260;2022-08-11T06:31:57;94702.03;;;21.31;84.60
12793;BME280;6460;42.684;23.260;2022-08-11T06:34:34;94703.28;;;21.46;84.76
12793;BME280;6460;42.684;23.260;2022-08-11T06:37:21;94703.31;;;21.62;84.08
12793;BME280;6460;42.684;23.260;2022-08-11T06:40:00;94699.50;;;21.95;82.55
12793;BME280;6460;42.684;23.260;2022-08-11T06:42:50;94700.22;;;22.15;81.41
12793;BME280;6460;42.684;23.260;2022-08-11T06:45:25;94703.31;;;22.18;79.82
12793;BME280;6460;42.684;23.260;2022-08-11T06:47:55;94700.25;;;22.48;78.36
12793;BME280;6460;42.684;23.260;2022-08-11T06:50:26;94695.25;;;22.91;74.54
12793;BME280;6460;42.684;23.260;2022-08-11T06:53:14;94702.78;;;23.03;73.61
12793;BME280;6460;42.684;23.260;2022-08-11T06:55:45;94706.91;;;23.24;73.36
12793;BME280;6460;42.684;23.260;2022-08-11T06:58:32;94700.66;;;23.24;73.34
12793;BME280;6460;42.684;23.260;2022-08-11T07:01:26;94705.63;;;23.29;70.76
12793;BME280;6460;42.684;23.260;2022-08-11T07:04:02;94706.50;;;23.26;67.77
12793;BME280;6460;42.684;23.260;2022-08-11T07:06:42;94702.13;;;23.57;69.71
12793;BME280;6460;42.684;23.260;2022-08-11T07:12:59;94709.00;;;23.33;69.57
12793;BME280;6460;42.684;23.260;2022-08-11T07:15:46;94714.06;;;23.50;69.34
12793;BME280;6460;42.684;23.260;2022-08-11T07:18:20;94709.25;;;23.54;70.32
12793;BME280;6460;42.684;23.260;2022-08-11T07:21:13;94717.19;;;23.78;69.34
12793;BME280;6460;42.684;23.260;2022-08-11T07:24:00;94710.94;;;23.77;69.53
12793;BME280;6460;42.684;23.260;2022-08-11T07:26:49;94713.97;;;23.54;68.58
12793;BME280;6460;42.684;23.260;2022-08-11T07:29:36;94714.91;;;23.89;67.75
12793;BME280;6460;42.684;23.260;2022-08-11T07:32:15;94712.84;;;24.05;68.81
12793;BME280;6460;42.684;23.260;2022-08-11T07:34:49;94708.75;;;24.10;67.18
12793;BME280;6460;42.684;23.260;2022-08-11T07:37:22;94706.81;;;24.36;65.87
12793;BME280;6460;42.684;23.260;2022-08-11T07:39:52;94710.56;;;24.16;64.58
12793;BME280;6460;42.684;23.260;2022-08-11T07:42:22;94707.28;;;24.34;65.02
12793;BME280;6460;42.684;23.260;2022-08-11T07:44:54;94694.88;;;24.89;64.08
12793;BME280;6460;42.684;23.260;2022-08-11T07:47:40;94692.38;;;25.16;61.71
12793;BME280;6460;42.684;23.260;2022-08-11T07:50:26;94697.88;;;24.82;60.40
12793;BME280;6460;42.684;23.260;2022-08-11T07:53:13;94690.78;;;24.47;60.55
12793;BME280;6460;42.684;23.260;2022-08-11T07:55:41;94698.47;;;24.99;59.32
12793;BME280;6460;42.684;23.260;2022-08-11T07:58:10;94688.56;;;25.57;57.92
12793;BME280;6460;42.684;23.260;2022-08-11T08:00:56;94690.91;;;25.59;57.58
12793;BME280;6460;42.684;23.260;2022-08-11T08:03:41;94690.78;;;25.93;56.81
12793;BME280;6460;42.684;23.260;2022-08-11T08:06:28;94688.94;;;25.90;57.56
12793;BME280;6460;42.684;23.260;2022-08-11T08:09:16;94689.44;;;25.76;57.32
12793;BME280;6460;42.684;23.260;2022-08-11T08:12:02;94680.13;;;25.52;57.94
12793;BME280;6460;42.684;23.260;2022-08-11T08:14:49;94695.75;;;25.55;58.34
12793;BME280;6460;42.684;23.260;2022-08-11T08:17:34;94688.03;;;25.93;56.63
12793;BME280;6460;42.684;23.260;2022-08-11T08:20:16;94685.69;;;25.61;58.22
12793;BME280;6460;42.684;23.260;2022-08-11T08:22:46;94682.44;;;26.06;56.54
12793;BME280;6460;42.684;23.260;2022-08-11T08:25:16;94682.53;;;26.73;55.95
12793;BME280;6460;42.684;23.260;2022-08-11T08:27:44;94681.84;;;26.51;54.05
12793;BME280;6460;42.684;23.260;2022-08-11T08:30:12;94678.34;;;26.59;53.27
12793;BME280;6460;42.684;23.260;2022-08-11T08:32:57;94674.69;;;26.71;53.18
12793;BME280;6460;42.684;23.260;2022-08-11T08:35:26;94676.66;;;26.53;52.54
12793;BME280;6460;42.684;23.260;2022-08-11T08:37:55;94671.13;;;26.13;55.99
12793;BME280;6460;42.684;23.260;2022-08-11T08:40:25;94673.31;;;25.87;56.28
12793;BME280;6460;42.684;23.260;2022-08-11T08:42:54;94669.13;;;26.13;54.80
12793;BME280;6460;42.684;23.260;2022-08-11T08:45:23;94669.38;;;26.28;54.09
12793;BME280;6460;42.684;23.260;2022-08-11T08:47:57;94658.66;;;26.97;53.14
12793;BME280;6460;42.684;23.260;2022-08-11T08:50:29;94665.97;;;26.73;54.42
12793;BME280;6460;42.684;23.260;2022-08-11T08:53:12;94659.13;;;27.05;53.87
12793;BME280;6460;42.684;23.260;2022-08-11T08:55:44;94662.50;;;27.45;53.04
12793;BME280;6460;42.684;23.260;2022-08-11T08:58:13;94664.50;;;27.45;51.04
12793;BME280;6460;42.684;23.260;2022-08-11T09:00:43;94665.41;;;27.23;50.40
12793;BME280;6460;42.684;23.260;2022-08-11T09:03:12;94656.22;;;27.17;49.65
12793;BME280;6460;42.684;23.260;2022-08-11T09:05:39;94663.72;;;27.17;48.74
12793;BME280;6460;42.684;23.260;2022-08-11T09:08:07;94656.53;;;27.56;48.83
12793;BME280;6460;42.684;23.260;2022-08-11T09:10:35;94656.34;;;27.68;48.71
12793;BME280;6460;42.684;23.260;2022-08-11T09:13:05;94656.44;;;27.83;49.80
12793;BME280;6460;42.684;23.260;2022-08-11T09:15:33;94651.53;;;27.87;47.42
12793;BME280;6460;42.684;23.260;2022-08-11T09:18:03;94648.53;;;28.18;46.76
12793;BME280;6460;42.684;23.260;2022-08-11T09:20:35;94656.81;;;28.27;46.22
12793;BME280;6460;42.684;23.260;2022-08-11T09:23:05;94643.75;;;27.67;47.54
12793;BME280;6460;42.684;23.260;2022-08-11T09:25:52;94656.19;;;27.72;46.89
12793;BME280;6460;42.684;23.260;2022-08-11T09:28:41;94652.06;;;28.18;46.60
12793;BME280;6460;42.684;23.260;2022-08-11T09:31:09;94645.22;;;28.70;44.19
12793;BME280;6460;42.684;23.260;2022-08-11T09:33:38;94641.03;;;28.75;43.59
12793;BME280;6460;42.684;23.260;2022-08-11T09:36:06;94645.03;;;28.74;43.72
12793;BME280;6460;42.684;23.260;2022-08-11T09:38:49;94658.53;;;28.15;45.49
12793;BME280;6460;42.684;23.260;2022-08-11T09:41:34;94646.38;;;27.62;45.49
12793;BME280;6460;42.684;23.260;2022-08-11T09:44:04;94649.03;;;28.07;46.12
12793;BME280;6460;42.684;23.260;2022-08-11T09:46:49;94647.16;;;27.62;48.83
12793;BME280;6460;42.684;23.260;2022-08-11T09:49:18;94642.25;;;28.08;47.62
12793;BME280;6460;42.684;23.260;2022-08-11T09:51:46;94648.72;;;27.27;48.69
12793;BME280;6460;42.684;23.260;2022-08-11T09:54:16;94637.78;;;27.42;49.98
12793;BME280;6460;42.684;23.260;2022-08-11T09:56:44;94642.13;;;27.15;49.92
12793;BME280;6460;42.684;23.260;2022-08-11T09:59:29;94633.84;;;27.06;49.40
12793;BME280;6460;42.684;23.260;2022-08-11T10:01:59;94623.84;;;27.36;47.21
12793;BME280;6460;42.684;23.260;2022-08-11T10:04:30;94627.34;;;27.64;45.97
12793;BME280;6460;42.684;23.260;2022-08-11T10:07:01;94619.03;;;27.82;44.73
12793;BME280;6460;42.684;23.260;2022-08-11T10:09:32;94619.44;;;27.90;43.24
12793;BME280;6460;42.684;23.260;2022-08-11T10:12:01;94615.16;;;27.89;44.70
12793;BME280;6460;42.684;23.260;2022-08-11T10:14:31;94629.84;;;28.04;45.60
12793;BME280;6460;42.684;23.260;2022-08-11T10:17:18;94631.53;;;27.50;45.89
12793;BME280;6460;42.684;23.260;2022-08-11T10:19:47;94618.03;;;27.16;45.44
12793;BME280;6460;42.684;23.260;2022-08-11T10:22:15;94631.34;;;26.72;48.34
12793;BME280;6460;42.684;23.260;2022-08-11T10:25:02;94630.16;;;26.82;49.00
12793;BME280;6460;42.684;23.260;2022-08-11T10:27:47;94627.81;;;26.71;49.02
12793;BME280;6460;42.684;23.260;2022-08-11T10:30:19;94619.13;;;27.18;44.88
12793;BME280;6460;42.684;23.260;2022-08-11T10:33:04;94624.16;;;27.29;46.62
12793;BME280;6460;42.684;23.260;2022-08-11T10:35:48;94620.94;;;27.30;46.09
12793;BME280;6460;42.684;23.260;2022-08-11T10:38:15;94631.09;;;27.15;44.75
12793;BME280;6460;42.684;23.260;2022-08-11T10:40:45;94618.50;;;27.14;44.85
12793;BME280;6460;42.684;23.260;2022-08-11T10:43:33;94618.78;;;27.62;43.32
12793;BME280;6460;42.684;23.260;2022-08-11T10:46:00;94611.38;;;27.68;42.72
12793;BME280;6460;42.684;23.260;2022-08-11T10:48:45;94620.25;;;27.81;41.13
12793;BME280;6460;42.684;23.260;2022-08-11T10:51:13;94603.56;;;28.08;41.41
12793;BME280;6460;42.684;23.260;2022-08-11T10:53:44;94605.78;;;27.86;42.52
12793;BME280;6460;42.684;23.260;2022-08-11T10:56:32;94606.31;;;28.17;43.67
12793;BME280;6460;42.684;23.260;2022-08-11T10:59:18;94599.31;;;27.89;43.45
12793;BME280;6460;42.684;23.260;2022-08-11T11:01:48;94598.25;;;28.28;42.65
12793;BME280;6460;42.684;23.260;2022-08-11T11:04:17;94592.28;;;28.54;42.07
12793;BME280;6460;42.684;23.260;2022-08-11T11:06:50;94586.75;;;28.54;42.69
12793;BME280;6460;42.684;23.260;2022-08-11T11:09:27;94593.44;;;27.63;46.10
12793;BME280;6460;42.684;23.260;2022-08-11T11:12:02;94592.53;;;27.99;45.02
12793;BME280;6460;42.684;23.260;2022-08-11T11:14:46;94592.56;;;27.39;46.52
12793;BME280;6460;42.684;23.260;2022-08-11T11:17:39;94585.88;;;27.82;44.96
12793;BME280;6460;42.684;23.260;2022-08-11T11:20:24;94586.72;;;27.97;43.77
12793;BME280;6460;42.684;23.260;2022-08-11T11:22:55;94582.72;;;28.07;43.54
12793;BME280;6460;42.684;23.260;2022-08-11T11:25:34;94581.81;;;28.58;42.45
12793;BME280;6460;42.684;23.260;2022-08-11T11:28:15;94574.50;;;28.93;41.24
12793;BME280;6460;42.684;23.260;2022-08-11T11:30:52;94584.03;;;29.60;39.73
12793;BME280;6460;42.684;23.260;2022-08-11T11:33:31;94578.28;;;29.19;40.41
12793;BME280;6460;42.684;23.260;2022-08-11T11:36:11;94576.41;;;29.02;39.21
12793;BME280;6460;42.684;23.260;2022-08-11T11:38:41;94568.38;;;29.27;39.43
12793;BME280;6460;42.684;23.260;2022-08-11T11:41:09;94567.88;;;29.87;38.57
12793;BME280;6460;42.684;23.260;2022-08-11T11:43:53;94576.25;;;30.08;38.46
12793;BME280;6460;42.684;23.260;2022-08-11T11:46:22;94572.72;;;30.07;38.50
12793;BME280;6460;42.684;23.260;2022-08-11T11:48:52;94571.09;;;30.35;38.03
12793;BME280;6460;42.684;23.260;2022-08-11T11:51:19;94561.31;;;30.75;36.60
12793;BME280;6460;42.684;23.260;2022-08-11T11:53:48;94562.41;;;30.42;37.54
12793;BME280;6460;42.684;23.260;2022-08-11T11:56:15;94568.25;;;30.65;37.25
12793;BME280;6460;42.684;23.260;2022-08-11T11:58:42;94555.88;;;30.46;36.01
12793;BME280;6460;42.684;23.260;2022-08-11T12:01:27;94549.78;;;30.82;36.17
12793;BME280;6460;42.684;23.260;2022-08-11T12:03:56;94562.13;;;31.01;35.55
12793;BME280;6460;42.684;23.260;2022-08-11T12:06:24;94561.69;;;30.48;36.31
12793;BME280;6460;42.684;23.260;2022-08-11T12:08:54;94552.66;;;30.93;35.71
12793;BME280;6460;42.684;23.260;2022-08-11T12:11:23;94557.75;;;30.19;36.12
12793;BME280;6460;42.684;23.260;2022-08-11T12:14:09;94549.97;;;30.03;36.33
12793;BME280;6460;42.684;23.260;2022-08-11T12:16:38;94542.72;;;30.40;36.88
12793;BME280;6460;42.684;23.260;2022-08-11T12:19:09;94542.47;;;29.89;37.60
12793;BME280;6460;42.684;23.260;2022-08-11T12:21:38;94537.13;;;30.20;37.31
12793;BME280;6460;42.684;23.260;2022-08-11T12:24:28;94540.63;;;30.76;36.56
12793;BME280;6460;42.684;23.260;2022-08-11T12:27:14;94535.03;;;31.16;35.39
12793;BME280;6460;42.684;23.260;2022-08-11T12:29:49;94531.25;;;31.45;34.75
12793;BME280;6460;42.684;23.260;2022-08-11T12:32:17;94544.34;;;31.65;34.54
12793;BME280;6460;42.684;23.260;2022-08-11T12:34:47;94530.13;;;31.31;34.58
12793;BME280;6460;42.684;23.260;2022-08-11T12:37:15;94531.88;;;31.55;34.12
12793;BME280;6460;42.684;23.260;2022-08-11T12:39:50;94542.84;;;31.43;33.32
12793;BME280;6460;42.684;23.260;2022-08-11T12:42:36;94531.50;;;31.73;33.88
12793;BME280;6460;42.684;23.260;2022-08-11T12:45:25;94549.63;;;30.91;37.25
12793;BME280;6460;42.684;23.260;2022-08-11T12:48:00;94538.91;;;30.23;39.44
12793;BME280;6460;42.684;23.260;2022-08-11T12:50:51;94547.75;;;29.43;40.46
12793;BME280;6460;42.684;23.260;2022-08-11T12:53:39;94560.00;;;28.98;41.31
12793;BME280;6460;42.684;23.260;2022-08-11T12:56:09;94551.84;;;28.80;43.41
12793;BME280;6460;42.684;23.260;2022-08-11T12:58:55;94553.56;;;28.77;43.70
12793;BME280;6460;42.684;23.260;2022-08-11T13:01:40;94551.38;;;28.58;44.62
12793;BME280;6460;42.684;23.260;2022-08-11T13:04:26;94547.16;;;28.24;45.47
12793;BME280;6460;42.684;23.260;2022-08-11T13:07:14;94565.22;;;28.01;46.71
12793;BME280;6460;42.684;23.260;2022-08-11T13:09:43;94557.59;;;27.87;46.67
12793;BME280;6460;42.684;23.260;2022-08-11T13:12:12;94558.22;;;27.49;46.66
12793;BME280;6460;42.684;23.260;2022-08-11T13:14:58;94558.41;;;27.18;47.33
12793;BME280;6460;42.684;23.260;2022-08-11T13:17:26;94558.97;;;27.41;47.37
12793;BME280;6460;42.684;23.260;2022-08-11T13:19:56;94569.59;;;27.84;46.59
12793;BME280;6460;42.684;23.260;2022-08-11T13:22:25;94549.56;;;28.55;44.39
12793;BME280;6460;42.684;23.260;2022-08-11T13:24:54;94551.16;;;28.70;43.80
12793;BME280;6460;42.684;23.260;2022-08-11T13:27:21;94539.25;;;29.32;42.38
12793;BME280;6460;42.684;23.260;2022-08-11T13:29:50;94539.19;;;29.90;40.26
12793;BME280;6460;42.684;23.260;2022-08-11T13:32:39;94548.97;;;30.21;38.25
12793;BME280;6460;42.684;23.260;2022-08-11T13:35:08;94537.28;;;30.52;38.08
12793;BME280;6460;42.684;23.260;2022-08-11T13:37:42;94535.06;;;30.96;37.97
12793;BME280;6460;42.684;23.260;2022-08-11T13:40:11;94534.44;;;31.07;37.62
12793;BME280;6460;42.684;23.260;2022-08-11T13:42:40;94531.66;;;31.58;36.52
12793;BME280;6460;42.684;23.260;2022-08-11T13:45:08;94527.72;;;31.70;35.91
12793;BME280;6460;42.684;23.260;2022-08-11T13:47:36;94531.28;;;32.08;34.63
12793;BME280;6460;42.684;23.260;2022-08-11T13:50:05;94524.25;;;32.12;34.50
12793;BME280;6460;42.684;23.260;2022-08-11T13:52:33;94524.69;;;32.47;33.29
12793;BME280;6460;42.684;23.260;2022-08-11T13:55:03;94514.94;;;32.74;32.46
12793;BME280;6460;42.684;23.260;2022-08-11T13:57:31;94513.56;;;33.12;32.56
12793;BME280;6460;42.684;23.260;2022-08-11T13:59:59;94502.47;;;33.34;31.00
12793;BME280;6460;42.684;23.260;2022-08-11T14:02:39;94509.03;;;33.42;30.87
12793;BME280;6460;42.684;23.260;2022-08-11T14:05:11;94508.56;;;33.61;30.13
12793;BME280;6460;42.684;23.260;2022-08-11T14:07:45;94508.31;;;33.64;30.27
12793;BME280;6460;42.684;23.260;2022-08-11T14:10:17;94511.34;;;33.72;29.82
12793;BME280;6460;42.684;23.260;2022-08-11T14:12:51;94509.56;;;33.91;30.04
12793;BME280;6460;42.684;23.260;2022-08-11T14:15:41;94504.75;;;34.14;29.88
12793;BME280;6460;42.684;23.260;2022-08-11T14:18:16;94503.72;;;34.17;29.18
12793;BME280;6460;42.684;23.260;2022-08-11T14:20:46;94500.91;;;34.22;29.96
12793;BME280;6460;42.684;23.260;2022-08-11T14:23:36;94501.28;;;34.60;28.50
12793;BME280;6460;42.684;23.260;2022-08-11T14:26:07;94500.56;;;34.48;28.70
12793;BME280;6460;42.684;23.260;2022-08-11T14:28:51;94504.88;;;34.43;28.08
12793;BME280;6460;42.684;23.260;2022-08-11T14:31:21;94506.25;;;33.98;29.34
12793;BME280;6460;42.684;23.260;2022-08-11T14:33:52;94500.44;;;33.40;29.88
12793;BME280;6460;42.684;23.260;2022-08-11T14:36:22;94503.63;;;33.00;30.36
12793;BME280;6460;42.684;23.260;2022-08-11T14:38:50;94497.81;;;32.98;30.79
12793;BME280;6460;42.684;23.260;2022-08-11T14:41:22;94499.69;;;33.57;28.94
12793;BME280;6460;42.684;23.260;2022-08-11T14:44:08;94495.63;;;33.74;29.39
12793;BME280;6460;42.684;23.260;2022-08-11T14:46:54;94494.34;;;33.47;29.97
12793;BME280;6460;42.684;23.260;2022-08-11T14:49:32;94497.31;;;33.05;30.43
12793;BME280;6460;42.684;23.260;2022-08-11T14:52:02;94501.94;;;33.41;31.14
12793;BME280;6460;42.684;23.260;2022-08-11T14:54:30;94497.88;;;33.42;31.14